sensor_id;sensor_type;location;lat;lon;timestamp;pressure;altitude;pressure_sealevel;temperature;humidity
22259;BME280;11298;46.034;14.496;2022-12-07T00:00:17;98029.03;;;6.69;89.45
22259;BME280;11298;46.034;14.496;2022-12-07T00:02:44;98028.00;;;6.70;89.34
22259;BME280;11298;46.034;14.496;2022-12-07T00:05:11;98034.03;;;6.72;89.42
22259;BME280;11298;46.034;14.496;2022-12-07T00:07:38;98025.75;;;6.73;89.21
22259;BME280;11298;46.034;14.496;2022-12-07T00:10:05;98020.16;;;6.75;89.48
22259;BME280;11298;46.034;14.496;2022-12-07T00:12:32;98028.91;;;6.77;89.29
22259;BME280;11298;46.034;14.496;2022-12-07T00:14:59;98021.81;;;6.76;89.31
22259;BME280;11298;46.034;14.496;2022-12-07T00:17:26;98023.50;;;6.77;89.12
22259;BME280;11298;46.034;14.496;2022-12-07T00:19:52;98021.81;;;6.76;89.09
22259;BME280;11298;46.034;14.496;2022-12-07T00:22:19;98003.78;;;6.77;89.29
22259;BME280;11298;46.034;14.496;2022-12-07T00:24:46;98016.44;;;6.76;88.97
22259;BME280;11298;46.034;14.496;2022-12-07T00:27:13;98017.84;;;6.72;89.08
22259;BME280;11298;46.034;14.496;2022-12-07T00:29:40;98019.91;;;6.70;89.06
22259;BME280;11298;46.034;14.496;2022-12-07T00:32:07;98023.44;;;6.70;88.95
22259;BME280;11298;46.034;14.496;2022-12-07T00:34:34;98008.91;;;6.71;89.11
22259;BME280;11298;46.034;14.496;2022-12-07T00:37:01;98004.34;;;6.72;89.12
22259;BME280;11298;46.034;14.496;2022-12-07T00:39:28;97998.97;;;6.72;88.92
22259;BME280;11298;46.034;14.496;2022-12-07T00:41:55;98000.00;;;6.71;88.98
22259;BME280;11298;46.034;14.496;2022-12-07T00:44:22;97998.97;;;6.72;88.94
22259;BME280;11298;46.034;14.496;2022-12-07T00:46:49;98000.44;;;6.75;88.68
22259;BME280;11298;46.034;14.496;2022-12-07T00:49:16;97999.41;;;6.76;88.57
22259;BME280;11298;46.034;14.496;2022-12-07T00:51:42;97989.44;;;6.76;88.56
22259;BME280;11298;46.034;14.496;2022-12-07T00:54:09;97983.22;;;6.76;88.70
22259;BME280;11298;46.034;14.496;2022-12-07T00:56:36;97986.94;;;6.75;88.54
22259;BME280;11298;46.034;14.496;2022-12-07T00:59:03;97987.13;;;6.73;88.33
22259;BME280;11298;46.034;14.496;2022-12-07T01:01:31;97995.22;;;6.73;88.58
22259;BME280;11298;46.034;14.496;2022-12-07T01:03:59;97990.88;;;6.72;88.53
22259;BME280;11298;46.034;14.496;2022-12-07T01:06:28;97997.09;;;6.72;88.48
22259;BME280;11298;46.034;14.496;2022-12-07T01:08:55;97993.56;;;6.72;88.49
22259;BME280;11298;46.034;14.496;2022-12-07T01:11:26;97998.97;;;6.72;88.20
22259;BME280;11298;46.034;14.496;2022-12-07T01:13:55;97996.25;;;6.72;88.43
22259;BME280;11298;46.034;14.496;2022-12-07T01:16:22;97986.50;;;6.71;88.40
22259;BME280;11298;46.034;14.496;2022-12-07T01:18:51;98001.66;;;6.72;88.30
22259;BME280;11298;46.034;14.496;2022-12-07T01:21:20;98000.63;;;6.73;88.10
22259;BME280;11298;46.034;14.496;2022-12-07T01:23:47;98000.63;;;6.73;88.28
22259;BME280;11298;46.034;14.496;2022-12-07T01:26:16;98000.81;;;6.71;88.18
22259;BME280;11298;46.034;14.496;2022-12-07T01:28:43;97999.34;;;6.69;88.14
22259;BME280;11298;46.034;14.496;2022-12-07T01:31:11;97990.22;;;6.70;87.92
22259;BME280;11298;46.034;14.496;2022-12-07T01:33:38;97990.22;;;6.70;88.04
22259;BME280;11298;46.034;14.496;2022-12-07T01:36:06;97992.09;;;6.69;88.21
22259;BME280;11298;46.034;14.496;2022-12-07T01:38:33;97985.03;;;6.68;88.17
22259;BME280;11298;46.034;14.496;2022-12-07T01:41:01;97984.38;;;6.66;88.06
22259;BME280;11298;46.034;14.496;2022-12-07T01:43:28;97980.22;;;6.64;87.98
22259;BME280;11298;46.034;14.496;2022-12-07T01:45:55;97981.03;;;6.64;88.02
22259;BME280;11298;46.034;14.496;2022-12-07T01:48:37;97980.84;;;6.66;87.93
22259;BME280;11298;46.034;14.496;2022-12-07T01:51:09;97986.06;;;6.67;87.89
22259;BME280;11298;46.034;14.496;2022-12-07T01:53:38;97983.53;;;6.66;87.79
22259;BME280;11298;46.034;14.496;2022-12-07T01:56:06;97992.47;;;6.66;87.73
22259;BME280;11298;46.034;14.496;2022-12-07T01:58:34;97984.19;;;6.68;87.78
22259;BME280;11298;46.034;14.496;2022-12-07T02:01:02;97987.72;;;6.68;87.56
22259;BME280;11298;46.034;14.496;2022-12-07T02:03:31;97989.59;;;6.68;87.74
22259;BME280;11298;46.034;14.496;2022-12-07T02:05:58;97982.97;;;6.70;87.51
22259;BME280;11298;46.034;14.496;2022-12-07T02:08:26;97991.88;;;6.71;87.48
22259;BME280;11298;46.034;14.496;2022-12-07T02:10:54;97994.78;;;6.69;87.39
22259;BME280;11298;46.034;14.496;2022-12-07T02:13:25;97991.25;;;6.69;87.27
22259;BME280;11298;46.034;14.496;2022-12-07T02:31:18;97965.69;;;6.65;87.12
22259;BME280;11298;46.034;14.496;2022-12-07T02:33:50;97972.69;;;6.59;87.17
22259;BME280;11298;46.034;14.496;2022-12-07T02:36:27;97975.19;;;6.61;87.28
22259;BME280;11298;46.034;14.496;2022-12-07T02:38:58;97968.59;;;6.63;86.99
22259;BME280;11298;46.034;14.496;2022-12-07T02:41:31;97964.84;;;6.64;87.10
22259;BME280;11298;46.034;14.496;2022-12-07T02:44:01;97965.69;;;6.65;87.24
22259;BME280;11298;46.034;14.496;2022-12-07T02:46:31;97953.22;;;6.64;87.02
22259;BME280;11298;46.034;14.496;2022-12-07T02:48:59;97956.97;;;6.63;87.14
22259;BME280;11298;46.034;14.496;2022-12-07T02:51:29;97955.47;;;6.60;87.02
22259;BME280;11298;46.034;14.496;2022-12-07T02:53:56;97955.25;;;6.55;87.28
22259;BME280;11298;46.034;14.496;2022-12-07T03:01:46;97956.09;;;6.56;87.28
22259;BME280;11298;46.034;14.496;2022-12-07T03:04:25;97950.50;;;6.57;87.34
22259;BME280;11298;46.034;14.496;2022-12-07T03:07:05;97952.97;;;6.59;87.44
22259;BME280;11298;46.034;14.496;2022-12-07T03:09:38;97946.56;;;6.60;87.50
22259;BME280;11298;46.034;14.496;2022-12-07T03:12:12;97950.28;;;6.59;87.55
22259;BME280;11298;46.034;14.496;2022-12-07T03:15:26;97945.53;;;6.61;87.51
22259;BME280;11298;46.034;14.496;2022-12-07T03:17:31;97942.00;;;6.60;87.78
22259;BME280;11298;46.034;14.496;2022-12-07T03:20:02;97934.94;;;6.59;87.77
22259;BME280;11298;46.034;14.496;2022-12-07T03:22:31;97934.94;;;6.59;87.56
22259;BME280;11298;46.034;14.496;2022-12-07T03:25:02;97937.22;;;6.56;87.84
22259;BME280;11298;46.034;14.496;2022-12-07T03:27:32;97925.41;;;6.57;87.64
22259;BME280;11298;46.034;14.496;2022-12-07T03:30:21;97928.09;;;6.57;87.82
22259;BME280;11298;46.034;14.496;2022-12-07T03:32:52;97897.22;;;6.38;87.77
22259;BME280;11298;46.034;14.496;2022-12-07T03:35:22;97924.94;;;6.53;87.96
22259;BME280;11298;46.034;14.496;2022-12-07T03:37:56;97915.19;;;6.52;87.81
22259;BME280;11298;46.034;14.496;2022-12-07T03:42:50;97913.06;;;6.48;87.69
22259;BME280;11298;46.034;14.496;2022-12-07T03:45:18;97917.00;;;6.45;87.85
22259;BME280;11298;46.034;14.496;2022-12-07T03:50:34;97916.34;;;6.43;87.66
22259;BME280;11298;46.034;14.496;2022-12-07T03:55:50;97909.72;;;6.46;87.63
22259;BME280;11298;46.034;14.496;2022-12-07T03:58:19;97914.09;;;6.47;87.45
22259;BME280;11298;46.034;14.496;2022-12-07T04:00:47;97908.72;;;6.47;87.43
22259;BME280;11298;46.034;14.496;2022-12-07T04:03:16;97914.09;;;6.47;87.42
22259;BME280;11298;46.034;14.496;2022-12-07T04:05:43;97911.22;;;6.48;87.44
22259;BME280;11298;46.034;14.496;2022-12-07T04:08:10;97914.09;;;6.47;87.26
22259;BME280;11298;46.034;14.496;2022-12-07T04:10:36;97916.78;;;6.47;87.33
22259;BME280;11298;46.034;14.496;2022-12-07T04:13:04;97907.69;;;6.48;87.36
22259;BME280;11298;46.034;14.496;2022-12-07T04:15:31;97910.19;;;6.49;87.24
22259;BME280;11298;46.034;14.496;2022-12-07T04:17:57;97910.00;;;6.51;87.15
22259;BME280;11298;46.034;14.496;2022-12-07T04:20:24;97917.88;;;6.52;87.14
22259;BME280;11298;46.034;14.496;2022-12-07T04:22:51;97926.81;;;6.53;86.97
22259;BME280;11298;46.034;14.496;2022-12-07T04:25:18;97922.44;;;6.52;86.83
22259;BME280;11298;46.034;14.496;2022-12-07T04:27:45;97916.22;;;6.51;87.02
22259;BME280;11298;46.034;14.496;2022-12-07T04:30:12;97908.13;;;6.51;87.01
22259;BME280;11298;46.034;14.496;2022-12-07T04:32:38;97904.59;;;6.51;86.92
22259;BME280;11298;46.034;14.496;2022-12-07T04:35:05;97905.44;;;6.51;86.82
22259;BME280;11298;46.034;14.496;2022-12-07T04:37:32;97900.88;;;6.52;86.92
22259;BME280;11298;46.034;14.496;2022-12-07T04:39:59;97896.13;;;6.54;86.70
22259;BME280;11298;46.034;14.496;2022-12-07T04:42:26;97898.81;;;6.54;86.84
22259;BME280;11298;46.034;14.496;2022-12-07T04:44:53;97897.34;;;6.51;86.60
22259;BME280;11298;46.034;14.496;2022-12-07T04:47:20;97907.28;;;6.51;86.76
22259;BME280;11298;46.034;14.496;2022-12-07T04:49:47;97893.81;;;6.51;86.51
22259;BME280;11298;46.034;14.496;2022-12-07T04:52:14;97892.13;;;6.50;86.67
22259;BME280;11298;46.034;14.496;2022-12-07T04:54:42;97898.16;;;6.52;86.63
22259;BME280;11298;46.034;14.496;2022-12-07T04:57:08;97888.59;;;6.49;86.63
22259;BME280;11298;46.034;14.496;2022-12-07T04:59:35;97893.81;;;6.51;86.43
22259;BME280;11298;46.034;14.496;2022-12-07T05:02:09;97885.06;;;6.49;86.32
22259;BME280;11298;46.034;14.496;2022-12-07T05:04:36;97884.06;;;6.50;86.21
22259;BME280;11298;46.034;14.496;2022-12-07T05:07:02;97885.06;;;6.49;86.33
22259;BME280;11298;46.034;14.496;2022-12-07T05:09:29;97878.00;;;6.48;86.39
22259;BME280;11298;46.034;14.496;2022-12-07T05:11:56;97878.00;;;6.48;86.18
22259;BME280;11298;46.034;14.496;2022-12-07T05:14:23;97888.41;;;6.51;86.10
22259;BME280;11298;46.034;14.496;2022-12-07T05:16:50;97882.19;;;6.50;86.01
22259;BME280;11298;46.034;14.496;2022-12-07T05:19:18;97890.91;;;6.52;86.27
22259;BME280;11298;46.034;14.496;2022-12-07T05:21:45;97891.75;;;6.53;86.12
22259;BME280;11298;46.034;14.496;2022-12-07T05:24:12;97892.59;;;6.53;85.95
22259;BME280;11298;46.034;14.496;2022-12-07T05:26:40;97893.63;;;6.52;85.90
22259;BME280;11298;46.034;14.496;2022-12-07T05:29:07;97896.31;;;6.52;86.10
22259;BME280;11298;46.034;14.496;2022-12-07T05:31:34;97900.47;;;6.55;85.80
22259;BME280;11298;46.034;14.496;2022-12-07T05:34:01;97889.06;;;6.53;86.07
22259;BME280;11298;46.034;14.496;2022-12-07T05:36:28;97897.97;;;6.53;85.83
22259;BME280;11298;46.034;14.496;2022-12-07T05:38:57;97898.81;;;6.54;85.65
22259;BME280;11298;46.034;14.496;2022-12-07T05:41:24;97898.63;;;6.55;85.58
22259;BME280;11298;46.034;14.496;2022-12-07T05:44:29;97896.94;;;6.54;85.76
22259;BME280;11298;46.034;14.496;2022-12-07T05:46:56;97905.88;;;6.55;85.47
22259;BME280;11298;46.034;14.496;2022-12-07T05:49:24;97895.09;;;6.55;85.63
22259;BME280;11298;46.034;14.496;2022-12-07T05:51:50;97902.53;;;6.53;85.51
22259;BME280;11298;46.034;14.496;2022-12-07T05:54:17;97910.25;;;6.56;85.32
22259;BME280;11298;46.034;14.496;2022-12-07T05:56:44;97913.78;;;6.56;85.46
22259;BME280;11298;46.034;14.496;2022-12-07T05:59:11;97903.19;;;6.55;85.18
22259;BME280;11298;46.034;14.496;2022-12-07T06:01:51;97913.13;;;6.54;85.38
22259;BME280;11298;46.034;14.496;2022-12-07T06:04:18;97912.09;;;6.55;85.12
22259;BME280;11298;46.034;14.496;2022-12-07T06:06:45;97911.28;;;6.55;85.23
22259;BME280;11298;46.034;14.496;2022-12-07T06:09:12;97918.34;;;6.56;85.03
22259;BME280;11298;46.034;14.496;2022-12-07T06:11:39;97917.50;;;6.55;85.12
22259;BME280;11298;46.034;14.496;2022-12-07T06:14:25;97918.53;;;6.54;84.88
22259;BME280;11298;46.034;14.496;2022-12-07T06:16:52;97917.06;;;6.52;84.79
22259;BME280;11298;46.034;14.496;2022-12-07T06:19:19;97918.72;;;6.53;84.71
22259;BME280;11298;46.034;14.496;2022-12-07T06:21:46;97922.25;;;6.53;84.86
22259;BME280;11298;46.034;14.496;2022-12-07T06:24:13;97918.72;;;6.53;84.49
22259;BME280;11298;46.034;14.496;2022-12-07T06:26:41;97927.66;;;6.53;84.68
22259;BME280;11298;46.034;14.496;2022-12-07T06:29:08;97922.06;;;6.55;84.56
22259;BME280;11298;46.034;14.496;2022-12-07T06:31:36;97925.78;;;6.54;84.44
22259;BME280;11298;46.034;14.496;2022-12-07T06:34:04;97930.16;;;6.55;84.34
22259;BME280;11298;46.034;14.496;2022-12-07T06:36:31;97928.69;;;6.52;84.28
22259;BME280;11298;46.034;14.496;2022-12-07T06:38:58;97927.84;;;6.52;84.42
22259;BME280;11298;46.034;14.496;2022-12-07T06:41:25;97928.69;;;6.52;84.23
22259;BME280;11298;46.034;14.496;2022-12-07T06:43:52;97935.75;;;6.53;84.18
22259;BME280;11298;46.034;14.496;2022-12-07T06:46:22;97924.75;;;6.55;84.22
22259;BME280;11298;46.034;14.496;2022-12-07T06:48:49;97917.50;;;6.55;84.02
22259;BME280;11298;46.034;14.496;2022-12-07T06:51:16;97925.59;;;6.55;83.88
22259;BME280;11298;46.034;14.496;2022-12-07T06:53:43;97922.91;;;6.55;84.01
22259;BME280;11298;46.034;14.496;2022-12-07T06:56:10;97921.03;;;6.56;83.92
22259;BME280;11298;46.034;14.496;2022-12-07T06:58:36;97929.13;;;6.56;83.89
22259;BME280;11298;46.034;14.496;2022-12-07T07:01:08;97930.97;;;6.55;83.92
22259;BME280;11298;46.034;14.496;2022-12-07T07:03:35;97926.63;;;6.54;83.73
22259;BME280;11298;46.034;14.496;2022-12-07T07:06:02;97929.50;;;6.53;83.69
22259;BME280;11298;46.034;14.496;2022-12-07T07:08:29;97929.50;;;6.53;83.76
22259;BME280;11298;46.034;14.496;2022-12-07T07:10:56;97929.50;;;6.53;83.84
22259;BME280;11298;46.034;14.496;2022-12-07T07:13:22;97933.88;;;6.54;83.56
22259;BME280;11298;46.034;14.496;2022-12-07T07:15:49;97932.00;;;6.54;83.74
22259;BME280;11298;46.034;14.496;2022-12-07T07:18:16;97927.66;;;6.53;83.75
22259;BME280;11298;46.034;14.496;2022-12-07T07:20:43;97938.25;;;6.55;83.57
22259;BME280;11298;46.034;14.496;2022-12-07T07:23:10;97939.28;;;6.54;83.79
22259;BME280;11298;46.034;14.496;2022-12-07T07:25:37;97901.47;;;6.26;83.57
22259;BME280;11298;46.034;14.496;2022-12-07T07:28:04;97940.28;;;6.53;83.67
22259;BME280;11298;46.034;14.496;2022-12-07T07:30:31;97941.31;;;6.52;83.38
22259;BME280;11298;46.034;14.496;2022-12-07T07:33:00;97946.06;;;6.50;83.62
22259;BME280;11298;46.034;14.496;2022-12-07T07:35:27;97910.63;;;6.31;83.42
22259;BME280;11298;46.034;14.496;2022-12-07T07:37:56;97938.56;;;6.45;83.22
22259;BME280;11298;46.034;14.496;2022-12-07T07:40:24;97934.59;;;6.41;83.22
22259;BME280;11298;46.034;14.496;2022-12-07T07:42:52;97939.91;;;6.34;83.02
22259;BME280;11298;46.034;14.496;2022-12-07T07:45:20;97943.00;;;6.31;83.24
22259;BME280;11298;46.034;14.496;2022-12-07T07:47:47;97955.63;;;6.31;82.96
22259;BME280;11298;46.034;14.496;2022-12-07T07:50:14;97952.09;;;6.30;82.94
22259;BME280;11298;46.034;14.496;2022-12-07T07:52:43;97955.63;;;6.31;82.95
22259;BME280;11298;46.034;14.496;2022-12-07T07:55:10;97952.50;;;6.27;83.03
22259;BME280;11298;46.034;14.496;2022-12-07T07:57:37;97954.16;;;6.28;82.86
22259;BME280;11298;46.034;14.496;2022-12-07T08:00:06;97960.38;;;6.29;83.04
22259;BME280;11298;46.034;14.496;2022-12-07T08:02:37;97957.50;;;6.30;82.89
22259;BME280;11298;46.034;14.496;2022-12-07T08:05:06;97962.91;;;6.30;82.96
22259;BME280;11298;46.034;14.496;2022-12-07T08:07:33;97962.06;;;6.30;82.88
22259;BME280;11298;46.034;14.496;2022-12-07T08:10:00;97967.19;;;6.25;82.92
22259;BME280;11298;46.034;14.496;2022-12-07T08:12:28;97960.53;;;6.21;82.73
22259;BME280;11298;46.034;14.496;2022-12-07T08:14:55;97968.44;;;6.22;82.56
22259;BME280;11298;46.034;14.496;2022-12-07T08:17:21;97966.75;;;6.21;82.60
22259;BME280;11298;46.034;14.496;2022-12-07T08:19:48;97972.34;;;6.20;82.31
22259;BME280;11298;46.034;14.496;2022-12-07T08:22:15;97976.53;;;6.22;82.36
22259;BME280;11298;46.034;14.496;2022-12-07T08:24:45;97976.09;;;6.25;82.24
22259;BME280;11298;46.034;14.496;2022-12-07T08:27:11;97976.53;;;6.22;81.83
22259;BME280;11298;46.034;14.496;2022-12-07T08:29:39;97980.81;;;6.17;81.87
22259;BME280;11298;46.034;14.496;2022-12-07T08:32:06;97978.97;;;6.17;81.86
22259;BME280;11298;46.034;14.496;2022-12-07T08:34:35;97982.28;;;6.19;81.72
22259;BME280;11298;46.034;14.496;2022-12-07T08:37:03;97973.81;;;6.22;81.80
22259;BME280;11298;46.034;14.496;2022-12-07T08:39:30;97971.13;;;6.22;81.62
22259;BME280;11298;46.034;14.496;2022-12-07T08:41:58;97970.72;;;6.25;81.60
22259;BME280;11298;46.034;14.496;2022-12-07T08:44:25;97977.78;;;6.26;81.38
22259;BME280;11298;46.034;14.496;2022-12-07T08:46:53;97982.78;;;6.29;81.60
22259;BME280;11298;46.034;14.496;2022-12-07T08:49:32;97979.06;;;6.30;81.34
22259;BME280;11298;46.034;14.496;2022-12-07T08:51:59;97993.56;;;6.29;81.32
22259;BME280;11298;46.034;14.496;2022-12-07T08:54:26;97995.25;;;6.30;81.14
22259;BME280;11298;46.034;14.496;2022-12-07T08:56:55;97989.47;;;6.33;81.14
22259;BME280;11298;46.034;14.496;2022-12-07T08:59:26;97999.41;;;6.33;81.15
22259;BME280;11298;46.034;14.496;2022-12-07T09:01:53;98010.41;;;6.31;80.73
22259;BME280;11298;46.034;14.496;2022-12-07T09:04:20;98009.75;;;6.29;80.51
22259;BME280;11298;46.034;14.496;2022-12-07T09:06:47;98007.59;;;6.39;80.74
22259;BME280;11298;46.034;14.496;2022-12-07T09:09:15;98003.09;;;6.47;80.48
22259;BME280;11298;46.034;14.496;2022-12-07T09:11:42;97999.81;;;6.51;80.41
22259;BME280;11298;46.034;14.496;2022-12-07T09:14:11;98012.97;;;6.61;80.30
22259;BME280;11298;46.034;14.496;2022-12-07T09:16:39;98014.25;;;6.65;80.23
22259;BME280;11298;46.034;14.496;2022-12-07T09:19:06;98012.56;;;6.64;80.01
22259;BME280;11298;46.034;14.496;2022-12-07T09:21:34;98017.59;;;6.67;79.89
22259;BME280;11298;46.034;14.496;2022-12-07T09:24:00;98016.81;;;6.73;79.96
22259;BME280;11298;46.034;14.496;2022-12-07T09:26:28;98016.03;;;6.79;79.59
22259;BME280;11298;46.034;14.496;2022-12-07T09:28:55;98006.78;;;6.88;79.44
22259;BME280;11298;46.034;14.496;2022-12-07T09:31:21;98004.56;;;6.98;79.33
22259;BME280;11298;46.034;14.496;2022-12-07T09:33:57;98000.06;;;7.05;79.29
22259;BME280;11298;46.034;14.496;2022-12-07T09:36:25;98005.94;;;7.16;79.03
22259;BME280;11298;46.034;14.496;2022-12-07T09:38:52;98000.41;;;7.24;79.06
22259;BME280;11298;46.034;14.496;2022-12-07T09:41:19;98001.66;;;7.28;79.00
22259;BME280;11298;46.034;14.496;2022-12-07T09:43:47;98001.88;;;7.33;78.87
22259;BME280;11298;46.034;14.496;2022-12-07T09:46:14;98002.38;;;7.43;78.66
22259;BME280;11298;46.034;14.496;2022-12-07T09:48:42;97989.75;;;7.50;78.73
22259;BME280;11298;46.034;14.496;2022-12-07T09:51:17;97998.34;;;7.60;78.32
22259;BME280;11298;46.034;14.496;2022-12-07T09:53:50;97992.09;;;7.66;78.45
22259;BME280;11298;46.034;14.496;2022-12-07T09:56:18;97996.06;;;7.70;78.23
22259;BME280;11298;46.034;14.496;2022-12-07T09:58:46;97993.59;;;7.76;78.02
22259;BME280;11298;46.034;14.496;2022-12-07T10:01:14;97985.72;;;7.81;78.10
22259;BME280;11298;46.034;14.496;2022-12-07T10:03:47;97987.22;;;7.90;78.00
22259;BME280;11298;46.034;14.496;2022-12-07T10:06:15;97986.44;;;7.96;78.08
22259;BME280;11298;46.034;14.496;2022-12-07T10:08:42;97981.84;;;8.03;77.90
22259;BME280;11298;46.034;14.496;2022-12-07T10:11:10;97986.03;;;8.05;77.81
22259;BME280;11298;46.034;14.496;2022-12-07T10:13:39;97981.44;;;8.06;77.59
22259;BME280;11298;46.034;14.496;2022-12-07T10:16:26;97983.94;;;8.07;77.67
22259;BME280;11298;46.034;14.496;2022-12-07T10:18:54;97981.44;;;8.06;77.87
22259;BME280;11298;46.034;14.496;2022-12-07T10:21:22;97981.44;;;8.06;77.51
22259;BME280;11298;46.034;14.496;2022-12-07T10:26:38;97969.38;;;7.95;77.46
22259;BME280;11298;46.034;14.496;2022-12-07T10:29:20;97979.88;;;8.31;76.70
22259;BME280;11298;46.034;14.496;2022-12-07T10:34:24;97962.41;;;8.34;76.45
22259;BME280;11298;46.034;14.496;2022-12-07T10:36:52;97960.34;;;8.43;76.07
22259;BME280;11298;46.034;14.496;2022-12-07T10:39:20;97956.22;;;8.60;75.78
22259;BME280;11298;46.034;14.496;2022-12-07T10:41:58;97956.81;;;8.68;75.56
22259;BME280;11298;46.034;14.496;2022-12-07T10:44:26;97965.06;;;10.04;72.92
22259;BME280;11298;46.034;14.496;2022-12-07T10:46:59;97969.06;;;10.39;71.87
22259;BME280;11298;46.034;14.496;2022-12-07T11:22:51;97937.19;;;11.83;67.21
22259;BME280;11298;46.034;14.496;2022-12-07T11:30:34;97935.75;;;14.15;62.36
22259;BME280;11298;46.034;14.496;2022-12-07T11:33:09;97940.41;;;15.43;59.81
22259;BME280;11298;46.034;14.496;2022-12-07T11:35:51;97936.50;;;16.43;58.42
22259;BME280;11298;46.034;14.496;2022-12-07T11:41:01;97938.41;;;17.76;55.74
22259;BME280;11298;46.034;14.496;2022-12-07T11:43:50;97934.75;;;18.18;54.39
22259;BME280;11298;46.034;14.496;2022-12-07T11:46:19;97931.19;;;18.17;54.45
22259;BME280;11298;46.034;14.496;2022-12-07T11:48:57;97929.59;;;18.41;54.41
22259;BME280;11298;46.034;14.496;2022-12-07T11:51:25;97935.13;;;18.52;53.79
22259;BME280;11298;46.034;14.496;2022-12-07T11:54:01;97929.91;;;18.55;52.78
22259;BME280;11298;46.034;14.496;2022-12-07T11:56:28;97926.31;;;18.50;52.81
22259;BME280;11298;46.034;14.496;2022-12-07T11:58:58;97931.03;;;18.59;52.59
22259;BME280;11298;46.034;14.496;2022-12-07T12:06:37;97909.88;;;19.51;50.40
22259;BME280;11298;46.034;14.496;2022-12-07T12:15:09;97898.63;;;18.87;48.98
22259;BME280;11298;46.034;14.496;2022-12-07T12:17:56;97888.09;;;18.33;49.09
22259;BME280;11298;46.034;14.496;2022-12-07T12:20:32;97890.53;;;18.39;48.33
22259;BME280;11298;46.034;14.496;2022-12-07T12:23:07;97889.38;;;18.10;48.29
22259;BME280;11298;46.034;14.496;2022-12-07T12:25:45;97887.34;;;17.80;48.29
22259;BME280;11298;46.034;14.496;2022-12-07T12:31:09;97886.59;;;17.95;47.33
22259;BME280;11298;46.034;14.496;2022-12-07T12:33:58;97885.31;;;18.38;46.80
22259;BME280;11298;46.034;14.496;2022-12-07T12:46:58;97883.13;;;18.30;45.92
22259;BME280;11298;46.034;14.496;2022-12-07T12:51:53;97877.56;;;18.09;45.91
22259;BME280;11298;46.034;14.496;2022-12-07T12:54:22;97876.19;;;18.12;45.20
22259;BME280;11298;46.034;14.496;2022-12-07T13:01:50;97872.38;;;18.23;45.52
22259;BME280;11298;46.034;14.496;2022-12-07T13:04:18;97876.53;;;18.31;44.79
22259;BME280;11298;46.034;14.496;2022-12-07T13:06:49;97874.44;;;17.81;45.42
22259;BME280;11298;46.034;14.496;2022-12-07T13:09:28;97861.41;;;17.08;46.71
22259;BME280;11298;46.034;14.496;2022-12-07T13:12:01;97854.03;;;15.69;49.19
22259;BME280;11298;46.034;14.496;2022-12-07T13:14:39;97848.94;;;14.79;50.63
22259;BME280;11298;46.034;14.496;2022-12-07T13:17:09;97852.44;;;14.13;51.69
22259;BME280;11298;46.034;14.496;2022-12-07T13:24:57;97853.03;;;12.53;54.12
22259;BME280;11298;46.034;14.496;2022-12-07T13:27:30;97859.69;;;12.45;54.54
22259;BME280;11298;46.034;14.496;2022-12-07T13:30:00;97847.38;;;12.01;55.50
22259;BME280;11298;46.034;14.496;2022-12-07T13:32:32;97850.59;;;11.80;55.56
22259;BME280;11298;46.034;14.496;2022-12-07T13:34:59;97843.25;;;11.14;57.35
22259;BME280;11298;46.034;14.496;2022-12-07T13:37:30;97842.69;;;10.68;58.16
22259;BME280;11298;46.034;14.496;2022-12-07T13:40:17;97843.75;;;10.43;59.19
22259;BME280;11298;46.034;14.496;2022-12-07T13:42:46;97841.84;;;10.18;59.70
22259;BME280;11298;46.034;14.496;2022-12-07T13:45:30;97839.50;;;9.97;60.41
22259;BME280;11298;46.034;14.496;2022-12-07T13:48:18;97854.97;;;9.90;60.62
22259;BME280;11298;46.034;14.496;2022-12-07T13:50:56;97841.22;;;9.85;61.01
22259;BME280;11298;46.034;14.496;2022-12-07T13:53:24;97835.50;;;9.68;61.25
22259;BME280;11298;46.034;14.496;2022-12-07T13:55:51;97837.69;;;9.46;62.04
22259;BME280;11298;46.034;14.496;2022-12-07T13:58:21;97843.63;;;9.30;62.93
22259;BME280;11298;46.034;14.496;2022-12-07T14:00:48;97839.91;;;9.18;63.14
22259;BME280;11298;46.034;14.496;2022-12-07T14:05:43;97837.06;;;8.93;64.63
22259;BME280;11298;46.034;14.496;2022-12-07T14:10:41;97842.50;;;8.80;65.01
22259;BME280;11298;46.034;14.496;2022-12-07T14:18:44;97847.13;;;8.66;65.97
22259;BME280;11298;46.034;14.496;2022-12-07T14:23:42;97848.75;;;8.67;66.41
22259;BME280;11298;46.034;14.496;2022-12-07T14:28:39;97851.28;;;8.62;67.05
22259;BME280;11298;46.034;14.496;2022-12-07T14:31:11;97853.38;;;8.60;67.23
22259;BME280;11298;46.034;14.496;2022-12-07T14:33:49;97860.25;;;8.62;67.27
22259;BME280;11298;46.034;14.496;2022-12-07T14:36:16;97853.38;;;8.60;67.73
22259;BME280;11298;46.034;14.496;2022-12-07T14:38:43;97859.41;;;8.49;68.48
22259;BME280;11298;46.034;14.496;2022-12-07T14:41:12;97857.94;;;8.46;68.64
22259;BME280;11298;46.034;14.496;2022-12-07T14:43:59;97866.69;;;8.48;68.45
22259;BME280;11298;46.034;14.496;2022-12-07T14:46:47;97862.53;;;8.46;68.64
22259;BME280;11298;46.034;14.496;2022-12-07T14:49:14;97872.53;;;8.45;68.97
22259;BME280;11298;46.034;14.496;2022-12-07T14:52:01;97868.78;;;8.39;69.21
22259;BME280;11298;46.034;14.496;2022-12-07T14:54:48;97878.97;;;8.37;69.49
22259;BME280;11298;46.034;14.496;2022-12-07T14:57:15;97874.59;;;8.36;69.47
22259;BME280;11298;46.034;14.496;2022-12-07T14:59:42;97878.75;;;8.32;70.03
22259;BME280;11298;46.034;14.496;2022-12-07T15:02:11;97884.16;;;8.32;70.16
22259;BME280;11298;46.034;14.496;2022-12-07T15:04:38;97877.88;;;8.32;70.21
22259;BME280;11298;46.034;14.496;2022-12-07T15:07:08;97875.84;;;8.34;70.07
22259;BME280;11298;46.034;14.496;2022-12-07T15:09:35;97885.41;;;8.36;70.49
22259;BME280;11298;46.034;14.496;2022-12-07T15:12:02;97876.25;;;8.31;70.76
22259;BME280;11298;46.034;14.496;2022-12-07T15:14:30;97883.72;;;8.22;71.03
22259;BME280;11298;46.034;14.496;2022-12-07T15:16:56;97892.25;;;8.13;71.37
22259;BME280;11298;46.034;14.496;2022-12-07T15:19:43;97886.63;;;8.14;71.41